sensor_id;sensor_type;location;lat;lon;timestamp;pressure;altitude;pressure_sealevel;temperature;humidity
70217;BME280;65567;55.684;37.570;2024-03-17T00:01:18;99375.75;;;5.28;48.22
70217;BME280;65567;55.684;37.570;2024-03-17T00:03:45;99368.19;;;5.19;48.09
70217;BME280;65567;55.684;37.570;2024-03-17T00:06:11;99363.84;;;5.19;48.11
70217;BME280;65567;55.684;37.570;2024-03-17T00:08:40;99362.31;;;5.12;48.47
70217;BME280;65567;55.684;37.570;2024-03-17T00:11:06;99359.44;;;5.23;48.00
70217;BME280;65567;55.684;37.570;2024-03-17T00:13:32;99362.75;;;5.28;48.00
70217;BME280;65567;55.684;37.570;2024-03-17T00:15:58;99359.72;;;5.45;47.47
70217;BME280;65567;55.684;37.570;2024-03-17T00:18:23;99359.97;;;5.66;47.00
70217;BME280;65567;55.684;37.570;2024-03-17T00:20:51;99364.53;;;5.57;47.15
70217;BME280;65567;55.684;37.570;2024-03-17T00:23:17;99357.63;;;5.56;46.82
70217;BME280;65567;55.684;37.570;2024-03-17T00:25:46;99361.31;;;5.49;47.10
70217;BME280;65567;55.684;37.570;2024-03-17T00:28:12;99358.91;;;5.73;46.61
70217;BME280;65567;55.684;37.570;2024-03-17T00:30:38;99360.88;;;5.65;46.59
70217;BME280;65567;55.684;37.570;2024-03-17T00:33:04;99363.78;;;5.54;47.05
70217;BME280;65567;55.684;37.570;2024-03-17T00:35:29;99358.16;;;5.38;47.41
70217;BME280;65567;55.684;37.570;2024-03-17T00:37:56;99356.84;;;5.21;47.96
70217;BME280;65567;55.684;37.570;2024-03-17T00:40:22;99355.19;;;5.20;48.10
70217;BME280;65567;55.684;37.570;2024-03-17T00:42:48;99350.03;;;5.17;48.22
70217;BME280;65567;55.684;37.570;2024-03-17T00:45:15;99354.44;;;5.15;48.16
70217;BME280;65567;55.684;37.570;2024-03-17T00:47:40;99346.03;;;5.05;48.53
70217;BME280;65567;55.684;37.570;2024-03-17T00:50:07;99345.34;;;4.99;48.94
70217;BME280;65567;55.684;37.570;2024-03-17T00:52:34;99348.19;;;5.22;48.15
70217;BME280;65567;55.684;37.570;2024-03-17T00:55:00;99344.13;;;5.45;47.53
70217;BME280;65567;55.684;37.570;2024-03-17T00:57:26;99348.84;;;5.60;47.14
70217;BME280;65567;55.684;37.570;2024-03-17T00:59:52;99345.47;;;5.58;47.10
70217;BME280;65567;55.684;37.570;2024-03-17T01:02:18;99348.69;;;5.67;46.72
70217;BME280;65567;55.684;37.570;2024-03-17T01:04:44;99345.56;;;5.55;46.89
70217;BME280;65567;55.684;37.570;2024-03-17T01:07:11;99340.59;;;5.48;47.02
70217;BME280;65567;55.684;37.570;2024-03-17T01:09:37;99340.69;;;5.43;47.33
70217;BME280;65567;55.684;37.570;2024-03-17T01:12:04;99335.34;;;5.49;47.35
70217;BME280;65567;55.684;37.570;2024-03-17T01:14:31;99334.31;;;5.23;47.88
70217;BME280;65567;55.684;37.570;2024-03-17T01:17:00;99338.09;;;5.43;47.36
70217;BME280;65567;55.684;37.570;2024-03-17T01:19:26;99330.22;;;5.46;47.42
70217;BME280;65567;55.684;37.570;2024-03-17T01:21:52;99333.88;;;5.39;47.61
70217;BME280;65567;55.684;37.570;2024-03-17T01:24:18;99334.88;;;5.33;47.75
70217;BME280;65567;55.684;37.570;2024-03-17T01:26:47;99333.13;;;5.35;47.58
70217;BME280;65567;55.684;37.570;2024-03-17T01:29:12;99335.56;;;5.41;47.50
70217;BME280;65567;55.684;37.570;2024-03-17T01:31:39;99331.63;;;5.26;47.77
70217;BME280;65567;55.684;37.570;2024-03-17T01:34:05;99325.28;;;5.37;47.76
70217;BME280;65567;55.684;37.570;2024-03-17T01:36:30;99311.66;;;5.28;47.74
70217;BME280;65567;55.684;37.570;2024-03-17T01:38:56;99321.16;;;5.29;47.70
70217;BME280;65567;55.684;37.570;2024-03-17T01:41:22;99311.91;;;5.19;48.14
70217;BME280;65567;55.684;37.570;2024-03-17T01:43:48;99317.94;;;5.20;48.01
70217;BME280;65567;55.684;37.570;2024-03-17T01:46:15;99312.72;;;5.21;48.26
70217;BME280;65567;55.684;37.570;2024-03-17T01:48:43;99316.22;;;5.20;48.35
70217;BME280;65567;55.684;37.570;2024-03-17T01:51:11;99313.16;;;5.04;48.78
70217;BME280;65567;55.684;37.570;2024-03-17T01:53:39;99316.44;;;5.12;48.47
70217;BME280;65567;55.684;37.570;2024-03-17T01:56:05;99310.94;;;5.23;48.31
70217;BME280;65567;55.684;37.570;2024-03-17T01:58:34;99306.63;;;5.22;48.17
70217;BME280;65567;55.684;37.570;2024-03-17T02:01:00;99313.00;;;5.10;48.70
70217;BME280;65567;55.684;37.570;2024-03-17T02:03:26;99313.41;;;4.95;48.94
70217;BME280;65567;55.684;37.570;2024-03-17T02:05:52;99307.44;;;4.93;49.22
70217;BME280;65567;55.684;37.570;2024-03-17T02:08:18;99301.97;;;4.69;49.69
70217;BME280;65567;55.684;37.570;2024-03-17T02:10:46;99303.31;;;4.50;50.37
70217;BME280;65567;55.684;37.570;2024-03-17T02:13:17;99297.72;;;4.32;51.12
70217;BME280;65567;55.684;37.570;2024-03-17T02:15:43;99300.13;;;4.40;51.07
70217;BME280;65567;55.684;37.570;2024-03-17T02:18:09;99288.00;;;4.75;50.24
70217;BME280;65567;55.684;37.570;2024-03-17T02:20:35;99283.59;;;4.77;49.75
70217;BME280;65567;55.684;37.570;2024-03-17T02:23:19;99284.81;;;4.63;50.15
70217;BME280;65567;55.684;37.570;2024-03-17T02:25:45;99292.06;;;4.85;49.50
70217;BME280;65567;55.684;37.570;2024-03-17T02:28:12;99294.56;;;4.55;50.30
70217;BME280;65567;55.684;37.570;2024-03-17T02:30:38;99298.06;;;4.53;50.39
70217;BME280;65567;55.684;37.570;2024-03-17T02:33:04;99291.25;;;4.49;50.78
70217;BME280;65567;55.684;37.570;2024-03-17T02:35:32;99287.34;;;4.67;50.33
70217;BME280;65567;55.684;37.570;2024-03-17T02:37:58;99287.47;;;4.62;50.45
70217;BME280;65567;55.684;37.570;2024-03-17T02:40:23;99288.66;;;4.49;50.65
70217;BME280;65567;55.684;37.570;2024-03-17T02:42:49;99284.28;;;4.51;50.58
70217;BME280;65567;55.684;37.570;2024-03-17T02:45:16;99290.31;;;4.51;50.53
70217;BME280;65567;55.684;37.570;2024-03-17T02:47:42;99275.56;;;4.53;50.85
70217;BME280;65567;55.684;37.570;2024-03-17T02:50:08;99276.66;;;4.44;50.81
70217;BME280;65567;55.684;37.570;2024-03-17T02:52:34;99272.88;;;4.56;50.55
70217;BME280;65567;55.684;37.570;2024-03-17T02:55:00;99273.22;;;4.44;50.85
70217;BME280;65567;55.684;37.570;2024-03-17T02:57:26;99271.06;;;4.60;50.48
70217;BME280;65567;55.684;37.570;2024-03-17T02:59:55;99273.88;;;4.52;50.91
70217;BME280;65567;55.684;37.570;2024-03-17T03:02:22;99274.88;;;4.46;50.96
70217;BME280;65567;55.684;37.570;2024-03-17T03:04:48;99271.56;;;4.41;51.29
70217;BME280;65567;55.684;37.570;2024-03-17T03:07:14;99277.44;;;4.48;50.93
70217;BME280;65567;55.684;37.570;2024-03-17T03:09:40;99274.28;;;4.70;50.24
70217;BME280;65567;55.684;37.570;2024-03-17T03:12:06;99272.97;;;4.86;49.73
70217;BME280;65567;55.684;37.570;2024-03-17T03:14:33;99271.47;;;4.79;49.96
70217;BME280;65567;55.684;37.570;2024-03-17T03:16:59;99272.78;;;4.94;49.53
70217;BME280;65567;55.684;37.570;2024-03-17T03:19:28;99273.72;;;4.91;49.44
70217;BME280;65567;55.684;37.570;2024-03-17T03:21:55;99269.50;;;4.87;49.21
70217;BME280;65567;55.684;37.570;2024-03-17T03:24:21;99264.56;;;4.78;49.31
70217;BME280;65567;55.684;37.570;2024-03-17T03:26:47;99272.13;;;4.86;49.19
70217;BME280;65567;55.684;37.570;2024-03-17T03:29:14;99266.38;;;4.74;49.35
70217;BME280;65567;55.684;37.570;2024-03-17T03:31:40;99258.25;;;4.55;50.00
70217;BME280;65567;55.684;37.570;2024-03-17T03:34:07;99254.91;;;4.50;50.23
70217;BME280;65567;55.684;37.570;2024-03-17T03:36:37;99256.13;;;4.35;50.59
70217;BME280;65567;55.684;37.570;2024-03-17T03:39:03;99250.66;;;4.46;50.28
70217;BME280;65567;55.684;37.570;2024-03-17T03:41:35;99253.06;;;4.55;50.20
70217;BME280;65567;55.684;37.570;2024-03-17T03:44:01;99255.75;;;4.51;50.20
70217;BME280;65567;55.684;37.570;2024-03-17T03:46:27;99253.19;;;4.49;50.46
70217;BME280;65567;55.684;37.570;2024-03-17T03:48:53;99256.38;;;4.60;50.24
70217;BME280;65567;55.684;37.570;2024-03-17T03:51:19;99255.78;;;4.49;50.44
70217;BME280;65567;55.684;37.570;2024-03-17T03:53:45;99253.34;;;4.43;50.77
70217;BME280;65567;55.684;37.570;2024-03-17T03:56:11;99255.78;;;4.49;50.97
70217;BME280;65567;55.684;37.570;2024-03-17T03:58:38;99253.34;;;4.43;51.33
70217;BME280;65567;55.684;37.570;2024-03-17T04:01:09;99247.03;;;4.53;51.08
70217;BME280;65567;55.684;37.570;2024-03-17T04:03:41;99245.13;;;4.60;51.08
70217;BME280;65567;55.684;37.570;2024-03-17T04:06:11;99243.88;;;4.75;50.86
70217;BME280;65567;55.684;37.570;2024-03-17T04:08:38;99236.53;;;4.91;50.41
70217;BME280;65567;55.684;37.570;2024-03-17T04:11:07;99237.84;;;5.06;50.13
70217;BME280;65567;55.684;37.570;2024-03-17T04:13:33;99226.78;;;5.29;49.46
70217;BME280;65567;55.684;37.570;2024-03-17T04:16:00;99244.84;;;5.63;48.83
70217;BME280;65567;55.684;37.570;2024-03-17T04:18:27;99237.66;;;5.72;48.28
70217;BME280;65567;55.684;37.570;2024-03-17T04:20:56;99234.81;;;5.79;48.56
70217;BME280;65567;55.684;37.570;2024-03-17T04:23:23;99246.56;;;5.91;48.27
70217;BME280;65567;55.684;37.570;2024-03-17T04:25:50;99239.25;;;6.04;47.91
70217;BME280;65567;55.684;37.570;2024-03-17T04:28:17;99241.44;;;6.18;47.71
70217;BME280;65567;55.684;37.570;2024-03-17T04:30:43;99237.72;;;6.25;47.72
70217;BME280;65567;55.684;37.570;2024-03-17T04:33:10;99240.81;;;6.37;47.57
70217;BME280;65567;55.684;37.570;2024-03-17T04:35:40;99242.91;;;6.52;47.14
70217;BME280;65567;55.684;37.570;2024-03-17T04:38:07;99241.94;;;6.80;46.41
70217;BME280;65567;55.684;37.570;2024-03-17T04:40:33;99226.44;;;7.01;46.15
70217;BME280;65567;55.684;37.570;2024-03-17T04:43:00;99229.25;;;7.20;45.57
70217;BME280;65567;55.684;37.570;2024-03-17T04:45:26;99222.28;;;7.44;45.08
70217;BME280;65567;55.684;37.570;2024-03-17T04:47:52;99212.78;;;7.65;44.77
70217;BME280;65567;55.684;37.570;2024-03-17T04:50:17;99219.38;;;7.96;44.17
70217;BME280;65567;55.684;37.570;2024-03-17T04:52:44;99221.97;;;8.18;43.92
70217;BME280;65567;55.684;37.570;2024-03-17T04:55:10;99223.34;;;8.49;43.05
70217;BME280;65567;55.684;37.570;2024-03-17T04:57:36;99221.50;;;8.72;42.45
70217;BME280;65567;55.684;37.570;2024-03-17T05:00:02;99195.38;;;8.72;42.22
70217;BME280;65567;55.684;37.570;2024-03-17T05:02:32;99225.34;;;9.23;41.68
70217;BME280;65567;55.684;37.570;2024-03-17T05:04:59;99221.22;;;9.56;41.16
70217;BME280;65567;55.684;37.570;2024-03-17T05:07:24;99223.53;;;9.81;40.66
70217;BME280;65567;55.684;37.570;2024-03-17T05:09:51;99223.88;;;10.10;39.70
70217;BME280;65567;55.684;37.570;2024-03-17T05:12:17;99221.03;;;10.32;39.50
70217;BME280;65567;55.684;37.570;2024-03-17T05:14:42;99231.31;;;10.54;38.96
70217;BME280;65567;55.684;37.570;2024-03-17T05:17:08;99222.69;;;10.70;38.60
70217;BME280;65567;55.684;37.570;2024-03-17T05:19:34;99230.59;;;10.86;38.42
70217;BME280;65567;55.684;37.570;2024-03-17T05:22:00;99224.03;;;10.95;37.67
70217;BME280;65567;55.684;37.570;2024-03-17T05:24:26;99223.59;;;11.20;37.34
70217;BME280;65567;55.684;37.570;2024-03-17T05:26:52;99233.06;;;11.54;37.03
70217;BME280;65567;55.684;37.570;2024-03-17T05:29:18;99223.69;;;11.82;36.25
70217;BME280;65567;55.684;37.570;2024-03-17T05:31:43;99223.16;;;12.07;35.80
70217;BME280;65567;55.684;37.570;2024-03-17T05:34:09;99222.25;;;12.39;35.66
70217;BME280;65567;55.684;37.570;2024-03-17T05:36:36;99225.88;;;12.67;34.67
70217;BME280;65567;55.684;37.570;2024-03-17T05:39:02;99226.28;;;12.89;33.83
70217;BME280;65567;55.684;37.570;2024-03-17T05:41:28;99226.47;;;13.15;33.70
70217;BME280;65567;55.684;37.570;2024-03-17T05:43:54;99226.66;;;13.41;33.31
70217;BME280;65567;55.684;37.570;2024-03-17T05:46:24;99238.75;;;13.58;32.79
70217;BME280;65567;55.684;37.570;2024-03-17T05:48:52;99231.50;;;13.76;32.36
70217;BME280;65567;55.684;37.570;2024-03-17T05:51:18;99228.00;;;14.03;31.62
70217;BME280;65567;55.684;37.570;2024-03-17T05:53:43;99223.22;;;14.23;31.56
70217;BME280;65567;55.684;37.570;2024-03-17T05:56:12;99222.44;;;14.48;31.34
70217;BME280;65567;55.684;37.570;2024-03-17T05:58:39;99227.97;;;14.70;30.98
70217;BME280;65567;55.684;37.570;2024-03-17T06:01:07;99234.84;;;14.86;30.76
70217;BME280;65567;55.684;37.570;2024-03-17T06:03:34;99236.72;;;14.97;30.30
70217;BME280;65567;55.684;37.570;2024-03-17T06:06:02;99229.25;;;15.16;29.95
70217;BME280;65567;55.684;37.570;2024-03-17T06:08:28;99220.16;;;15.20;30.13
70217;BME280;65567;55.684;37.570;2024-03-17T06:10:54;99221.63;;;15.25;30.05
70217;BME280;65567;55.684;37.570;2024-03-17T06:13:23;99225.81;;;15.40;30.00
70217;BME280;65567;55.684;37.570;2024-03-17T06:15:50;99217.69;;;15.43;29.82
70217;BME280;65567;55.684;37.570;2024-03-17T06:18:15;99211.69;;;15.28;29.84
70217;BME280;65567;55.684;37.570;2024-03-17T06:20:45;99219.38;;;15.44;29.72
70217;BME280;65567;55.684;37.570;2024-03-17T06:23:15;99217.31;;;15.61;29.37
70217;BME280;65567;55.684;37.570;2024-03-17T06:25:44;99211.56;;;15.67;29.29
70217;BME280;65567;55.684;37.570;2024-03-17T06:28:12;99216.56;;;15.59;29.80
70217;BME280;65567;55.684;37.570;2024-03-17T06:30:46;99215.00;;;15.19;30.16
70217;BME280;65567;55.684;37.570;2024-03-17T06:33:16;99201.91;;;15.04;30.15
70217;BME280;65567;55.684;37.570;2024-03-17T06:35:45;99219.00;;;14.73;30.79
70217;BME280;65567;55.684;37.570;2024-03-17T06:38:12;99206.88;;;14.96;30.42
70217;BME280;65567;55.684;37.570;2024-03-17T06:40:38;99208.34;;;15.00;30.19
70217;BME280;65567;55.684;37.570;2024-03-17T06:43:05;99212.38;;;14.80;30.68
70217;BME280;65567;55.684;37.570;2024-03-17T06:45:31;99209.41;;;14.19;31.36
70217;BME280;65567;55.684;37.570;2024-03-17T06:47:57;99204.44;;;14.14;31.56
70217;BME280;65567;55.684;37.570;2024-03-17T06:50:23;99210.56;;;13.87;31.81
70217;BME280;65567;55.684;37.570;2024-03-17T06:52:49;99207.78;;;14.03;31.85
70217;BME280;65567;55.684;37.570;2024-03-17T06:55:17;99204.00;;;14.08;32.14
70217;BME280;65567;55.684;37.570;2024-03-17T06:57:44;99201.31;;;14.22;31.27
70217;BME280;65567;55.684;37.570;2024-03-17T07:00:13;99191.19;;;14.29;31.49
70217;BME280;65567;55.684;37.570;2024-03-17T07:02:43;99193.31;;;14.36;31.20
70217;BME280;65567;55.684;37.570;2024-03-17T07:05:15;99197.00;;;14.34;31.52
70217;BME280;65567;55.684;37.570;2024-03-17T07:07:45;99194.59;;;14.31;31.39
70217;BME280;65567;55.684;37.570;2024-03-17T07:10:11;99196.59;;;14.40;31.58
70217;BME280;65567;55.684;37.570;2024-03-17T07:12:38;99185.13;;;14.41;31.85
70217;BME280;65567;55.684;37.570;2024-03-17T07:15:04;99169.94;;;13.92;32.38
70217;BME280;65567;55.684;37.570;2024-03-17T07:17:30;99192.88;;;13.90;33.06
70217;BME280;65567;55.684;37.570;2024-03-17T07:19:56;99186.28;;;14.10;32.85
70217;BME280;65567;55.684;37.570;2024-03-17T07:22:22;99190.28;;;14.43;31.95
70217;BME280;65567;55.684;37.570;2024-03-17T07:24:52;99191.84;;;14.45;31.80
70217;BME280;65567;55.684;37.570;2024-03-17T07:27:21;99186.28;;;14.37;31.78
70217;BME280;65567;55.684;37.570;2024-03-17T07:29:48;99190.56;;;14.38;31.65
70217;BME280;65567;55.684;37.570;2024-03-17T07:32:14;99190.47;;;14.27;31.98
70217;BME280;65567;55.684;37.570;2024-03-17T07:34:40;99186.94;;;14.13;32.42
70217;BME280;65567;55.684;37.570;2024-03-17T07:37:05;99190.50;;;13.99;32.55
70217;BME280;65567;55.684;37.570;2024-03-17T07:39:31;99175.22;;;13.92;32.70
70217;BME280;65567;55.684;37.570;2024-03-17T07:42:01;99186.31;;;13.82;32.71
70217;BME280;65567;55.684;37.570;2024-03-17T07:44:30;99177.63;;;13.95;32.98
70217;BME280;65567;55.684;37.570;2024-03-17T07:47:02;99190.19;;;14.04;32.83
70217;BME280;65567;55.684;37.570;2024-03-17T07:49:32;99186.84;;;13.87;32.63
70217;BME280;65567;55.684;37.570;2024-03-17T07:51:58;99182.09;;;13.80;33.12
70217;BME280;65567;55.684;37.570;2024-03-17T07:54:27;99184.72;;;13.80;32.99
70217;BME280;65567;55.684;37.570;2024-03-17T07:56:53;99199.78;;;13.50;33.24
70217;BME280;65567;55.684;37.570;2024-03-17T07:59:20;99187.34;;;13.52;32.93
70217;BME280;65567;55.684;37.570;2024-03-17T08:01:46;99195.94;;;13.42;33.06
70217;BME280;65567;55.684;37.570;2024-03-17T08:04:12;99189.72;;;13.28;33.42
70217;BME280;65567;55.684;37.570;2024-03-17T08:06:40;99184.63;;;13.25;33.61
70217;BME280;65567;55.684;37.570;2024-03-17T08:09:09;99188.06;;;13.13;33.52
70217;BME280;65567;55.684;37.570;2024-03-17T08:11:36;99188.34;;;12.94;33.78
70217;BME280;65567;55.684;37.570;2024-03-17T08:14:01;99186.84;;;12.75;34.20
70217;BME280;65567;55.684;37.570;2024-03-17T08:16:27;99178.00;;;12.76;34.74
70217;BME280;65567;55.684;37.570;2024-03-17T08:18:57;99176.50;;;12.72;34.79
70217;BME280;65567;55.684;37.570;2024-03-17T08:21:23;99180.06;;;12.56;35.06
70217;BME280;65567;55.684;37.570;2024-03-17T08:23:49;99183.06;;;12.65;34.88
70217;BME280;65567;55.684;37.570;2024-03-17T08:26:15;99176.66;;;12.54;35.19
70217;BME280;65567;55.684;37.570;2024-03-17T08:28:41;99180.16;;;12.55;35.28
70217;BME280;65567;55.684;37.570;2024-03-17T08:31:06;99177.16;;;12.76;35.32
70217;BME280;65567;55.684;37.570;2024-03-17T08:33:32;99168.44;;;12.89;35.03
70217;BME280;65567;55.684;37.570;2024-03-17T08:36:02;99159.63;;;12.91;35.18
70217;BME280;65567;55.684;37.570;2024-03-17T08:38:29;99162.22;;;13.05;35.13
70217;BME280;65567;55.684;37.570;2024-03-17T08:40:57;99174.81;;;13.00;35.33
70217;BME280;65567;55.684;37.570;2024-03-17T08:43:23;99173.50;;;12.93;35.41
70217;BME280;65567;55.684;37.570;2024-03-17T08:46:03;99170.28;;;13.31;34.46
70217;BME280;65567;55.684;37.570;2024-03-17T08:48:31;99168.59;;;13.44;33.89
70217;BME280;65567;55.684;37.570;2024-03-17T08:50:58;99169.72;;;13.40;34.07
70217;BME280;65567;55.684;37.570;2024-03-17T08:53:25;99167.09;;;13.40;33.94
70217;BME280;65567;55.684;37.570;2024-03-17T08:55:52;99174.03;;;13.41;33.86
70217;BME280;65567;55.684;37.570;2024-03-17T08:58:18;99169.97;;;13.35;33.80
70217;BME280;65567;55.684;37.570;2024-03-17T09:00:44;99162.94;;;13.50;33.71
70217;BME280;65567;55.684;37.570;2024-03-17T09:03:11;99167.81;;;13.57;33.74
70217;BME280;65567;55.684;37.570;2024-03-17T09:05:41;99171.38;;;13.55;34.04
70217;BME280;65567;55.684;37.570;2024-03-17T09:08:07;99170.22;;;13.60;33.86
70217;BME280;65567;55.684;37.570;2024-03-17T09:10:42;99172.59;;;13.50;34.17
70217;BME280;65567;55.684;37.570;2024-03-17T09:13:23;99165.66;;;13.49;34.60
70217;BME280;65567;55.684;37.570;2024-03-17T09:15:58;99171.38;;;13.55;34.74
70217;BME280;65567;55.684;37.570;2024-03-17T09:18:32;99166.56;;;13.62;34.83
70217;BME280;65567;55.684;37.570;2024-03-17T09:20:59;99173.69;;;13.75;34.25
70217;BME280;65567;55.684;37.570;2024-03-17T09:23:25;99167.16;;;13.80;34.17
70217;BME280;65567;55.684;37.570;2024-03-17T09:25:59;99175.84;;;13.68;34.03
70217;BME280;65567;55.684;37.570;2024-03-17T09:28:26;99169.09;;;13.64;33.97
70217;BME280;65567;55.684;37.570;2024-03-17T09:30:53;99158.31;;;13.54;33.94
70217;BME280;65567;55.684;37.570;2024-03-17T09:33:21;99163.81;;;13.36;34.42
70217;BME280;65567;55.684;37.570;2024-03-17T09:35:57;99164.25;;;13.29;34.55
70217;BME280;65567;55.684;37.570;2024-03-17T09:38:23;99166.53;;;13.20;34.74
70217;BME280;65567;55.684;37.570;2024-03-17T09:40:49;99170.28;;;13.31;34.50
70217;BME280;65567;55.684;37.570;2024-03-17T09:43:21;99165.22;;;13.13;34.58
70217;BME280;65567;55.684;37.570;2024-03-17T09:45:51;99174.16;;;12.96;35.17
70217;BME280;65567;55.684;37.570;2024-03-17T09:48:26;99171.63;;;13.09;34.84
70217;BME280;65567;55.684;37.570;2024-03-17T09:50:56;99165.94;;;13.30;34.56
70217;BME280;65567;55.684;37.570;2024-03-17T09:53:24;99163.19;;;12.75;35.69
70217;BME280;65567;55.684;37.570;2024-03-17T09:55:51;99161.28;;;12.63;35.98
70217;BME280;65567;55.684;37.570;2024-03-17T09:58:19;99155.34;;;12.30;36.33
70217;BME280;65567;55.684;37.570;2024-03-17T10:00:45;99156.97;;;12.47;36.13
70217;BME280;65567;55.684;37.570;2024-03-17T10:03:12;99151.16;;;12.71;35.67
70217;BME280;65567;55.684;37.570;2024-03-17T10:05:38;99156.97;;;13.05;35.05
70217;BME280;65567;55.684;37.570;2024-03-17T10:08:04;99154.91;;;13.10;35.25
70217;BME280;65567;55.684;37.570;2024-03-17T10:10:30;99141.72;;;13.39;34.58
70217;BME280;65567;55.684;37.570;2024-03-17T10:12:56;99150.16;;;13.44;34.65
70217;BME280;65567;55.684;37.570;2024-03-17T10:15:21;99146.69;;;13.44;34.64
70217;BME280;65567;55.684;37.570;2024-03-17T10:17:49;99147.91;;;13.23;35.03
70217;BME280;65567;55.684;37.570;2024-03-17T10:20:19;99143.31;;;13.42;34.87
70217;BME280;65567;55.684;37.570;2024-03-17T10:23:05;99145.44;;;13.77;34.48
70217;BME280;65567;55.684;37.570;2024-03-17T10:25:33;99141.41;;;13.98;34.11
70217;BME280;65567;55.684;37.570;2024-03-17T10:28:00;99136.78;;;14.15;34.07
70217;BME280;65567;55.684;37.570;2024-03-17T10:30:29;99135.72;;;14.17;34.24
70217;BME280;65567;55.684;37.570;2024-03-17T10:32:59;99135.63;;;14.06;34.25
70217;BME280;65567;55.684;37.570;2024-03-17T10:35:38;99124.47;;;14.15;33.92
70217;BME280;65567;55.684;37.570;2024-03-17T10:38:06;99125.34;;;13.34;35.43
70217;BME280;65567;55.684;37.570;2024-03-17T10:40:33;99130.28;;;13.11;35.75
70217;BME280;65567;55.684;37.570;2024-03-17T10:43:02;99117.91;;;12.84;36.26
70217;BME280;65567;55.684;37.570;2024-03-17T10:45:28;99124.88;;;12.71;36.33
70217;BME280;65567;55.684;37.570;2024-03-17T10:47:59;99120.69;;;13.25;35.55
70217;BME280;65567;55.684;37.570;2024-03-17T10:50:39;99119.81;;;12.82;36.40
70217;BME280;65567;55.684;37.570;2024-03-17T10:53:06;99120.56;;;12.41;36.98
70217;BME280;65567;55.684;37.570;2024-03-17T10:55:46;99122.34;;;12.69;36.55
70217;BME280;65567;55.684;37.570;2024-03-17T10:58:27;99116.81;;;12.45;37.31
70217;BME280;65567;55.684;37.570;2024-03-17T11:00:58;99117.63;;;12.31;37.30
70217;BME280;65567;55.684;37.570;2024-03-17T11:03:24;99117.66;;;12.01;38.05
70217;BME280;65567;55.684;37.570;2024-03-17T11:05:51;99120.94;;;11.58;38.65
70217;BME280;65567;55.684;37.570;2024-03-17T11:08:18;99115.53;;;11.61;38.63
70217;BME280;65567;55.684;37.570;2024-03-17T11:10:52;99109.72;;;11.86;38.04
70217;BME280;65567;55.684;37.570;2024-03-17T11:13:28;99118.16;;;12.07;37.79
70217;BME280;65567;55.684;37.570;2024-03-17T11:15:55;99119.28;;;11.87;38.15
70217;BME280;65567;55.684;37.570;2024-03-17T11:21:18;99120.47;;;11.19;39.55
70217;BME280;65567;55.684;37.570;2024-03-17T11:24:02;99129.84;;;10.91;40.04
70217;BME280;65567;55.684;37.570;2024-03-17T11:26:33;99113.97;;;11.27;39.68
70217;BME280;65567;55.684;37.570;2024-03-17T11:29:01;99123.69;;;11.24;39.83
70217;BME280;65567;55.684;37.570;2024-03-17T11:31:40;99117.09;;;11.17;40.09
70217;BME280;65567;55.684;37.570;2024-03-17T11:34:34;99111.84;;;11.17;39.91
70217;BME280;65567;55.684;37.570;2024-03-17T11:37:02;99096.63;;;11.24;39.34
70217;BME280;65567;55.684;37.570;2024-03-17T11:39:54;99119.28;;;11.09;40.26
70217;BME280;65567;55.684;37.570;2024-03-17T11:42:24;99111.19;;;10.98;40.30
70217;BME280;65567;55.684;37.570;2024-03-17T11:45:04;99100.81;;;10.63;41.00
70217;BME280;65567;55.684;37.570;2024-03-17T11:47:41;99113.97;;;10.61;41.11
70217;BME280;65567;55.684;37.570;2024-03-17T11:50:09;99115.94;;;10.73;40.96
70217;BME280;65567;55.684;37.570;2024-03-17T11:52:36;99104.25;;;10.47;41.55
70217;BME280;65567;55.684;37.570;2024-03-17T11:55:02;99115.41;;;10.33;41.79
70217;BME280;65567;55.684;37.570;2024-03-17T11:57:29;99103.13;;;10.35;41.53
70217;BME280;65567;55.684;37.570;2024-03-17T11:59:55;99107.72;;;10.64;41.07
70217;BME280;65567;55.684;37.570;2024-03-17T12:02:30;99106.41;;;10.88;40.92
70217;BME280;65567;55.684;37.570;2024-03-17T12:05:01;99102.16;;;10.54;41.40
70217;BME280;65567;55.684;37.570;2024-03-17T12:07:27;99108.09;;;10.40;41.54
70217;BME280;65567;55.684;37.570;2024-03-17T12:09:55;99108.50;;;10.66;41.25
70217;BME280;65567;55.684;37.570;2024-03-17T12:12:26;99108.34;;;10.35;41.66
70217;BME280;65567;55.684;37.570;2024-03-17T12:15:15;99108.81;;;9.91;43.06
70217;BME280;65567;55.684;37.570;2024-03-17T12:17:41;99099.50;;;9.68;43.63
70217;BME280;65567;55.684;37.570;2024-03-17T12:20:16;99109.19;;;9.83;43.15
70217;BME280;65567;55.684;37.570;2024-03-17T12:22:43;99111.34;;;9.92;43.11
70217;BME280;65567;55.684;37.570;2024-03-17T12:25:18;99109.41;;;9.61;43.98
70217;BME280;65567;55.684;37.570;2024-03-17T12:27:45;99111.94;;;9.80;43.38
70217;BME280;65567;55.684;37.570;2024-03-17T12:30:12;99096.00;;;9.67;43.86
70217;BME280;65567;55.684;37.570;2024-03-17T12:32:38;99102.94;;;9.51;44.46
70217;BME280;65567;55.684;37.570;2024-03-17T12:35:12;99097.16;;;9.62;44.27
70217;BME280;65567;55.684;37.570;2024-03-17T12:37:38;99098.00;;;9.45;44.65
70217;BME280;65567;55.684;37.570;2024-03-17T12:40:06;99092.22;;;9.38;44.86
70217;BME280;65567;55.684;37.570;2024-03-17T12:42:40;99095.75;;;9.54;44.26
70217;BME280;65567;55.684;37.570;2024-03-17T12:45:09;99107.19;;;10.06;43.50
70217;BME280;65567;55.684;37.570;2024-03-17T12:47:35;99101.78;;;10.09;43.04
70217;BME280;65567;55.684;37.570;2024-03-17T12:50:11;99102.72;;;9.90;43.61
70217;BME280;65567;55.684;37.570;2024-03-17T12:52:38;99094.41;;;10.17;42.98
70217;BME280;65567;55.684;37.570;2024-03-17T12:55:06;99092.66;;;10.34;42.47
70217;BME280;65567;55.684;37.570;2024-03-17T13:00:35;99090.63;;;10.23;42.84
70217;BME280;65567;55.684;37.570;2024-03-17T13:03:05;99083.78;;;9.85;44.13
70217;BME280;65567;55.684;37.570;2024-03-17T13:05:32;99088.69;;;9.74;44.84